createdAt,value
2023-04-11T00:01:02.269Z,7.7
2023-04-11T00:02:09.336Z,7.7
2023-04-11T00:03:16.352Z,7.7
2023-04-11T00:04:26.004Z,7.6
2023-04-11T00:05:32.919Z,7.6
2023-04-11T00:06:39.762Z,7.6
2023-04-11T00:07:46.581Z,7.6
2023-04-11T00:08:53.740Z,7.6
2023-04-11T00:10:00.333Z,7.6
2023-04-11T00:11:07.223Z,7.6
2023-04-11T00:12:14.005Z,7.6
2023-04-11T00:13:20.805Z,7.6
2023-04-11T00:14:27.634Z,7.5
2023-04-11T00:15:37.526Z,7.5
2023-04-11T00:16:44.434Z,7.6
2023-04-11T00:17:51.250Z,7.6
2023-04-11T00:18:58.127Z,7.6
2023-04-11T00:20:04.955Z,7.5
2023-04-11T00:21:11.990Z,7.5
2023-04-11T00:22:18.921Z,7.5
2023-04-11T00:23:25.829Z,7.5
2023-04-11T00:24:32.544Z,7.5
2023-04-11T00:25:39.346Z,7.5
2023-04-11T00:26:46.154Z,7.5
2023-04-11T00:27:53.077Z,7.6
2023-04-11T00:29:00.017Z,7.6
2023-04-11T00:30:06.817Z,7.6
2023-04-11T00:31:13.836Z,7.6
2023-04-11T00:32:20.572Z,7.5
2023-04-11T00:33:27.329Z,7.5
2023-04-11T00:34:34.299Z,7.5
2023-04-11T00:35:41.133Z,7.4
2023-04-11T00:36:47.842Z,7.4
2023-04-11T00:37:54.609Z,7.4
2023-04-11T00:39:01.417Z,7.4
2023-04-11T00:40:08.238Z,7.3
2023-04-11T00:41:15.187Z,7.3
2023-04-11T00:42:21.970Z,7.3
2023-04-11T00:43:28.794Z,7.3
2023-04-11T00:44:35.554Z,7.2
2023-04-11T00:45:42.567Z,7.2
2023-04-11T00:46:49.373Z,7.2
2023-04-11T00:47:56.275Z,7.2
2023-04-11T00:49:03.027Z,7.1
2023-04-11T00:50:09.847Z,7.1
2023-04-11T00:51:16.658Z,7.1
2023-04-11T00:52:23.446Z,7.1
2023-04-11T00:53:30.333Z,7.1
2023-04-11T00:54:39.846Z,7.1
2023-04-11T00:55:46.614Z,7.1
2023-04-11T00:56:53.425Z,7.1
2023-04-11T00:58:03.210Z,7.1
2023-04-11T00:59:10.002Z,7.1
2023-04-11T01:00:16.933Z,7.1
2023-04-11T01:01:25.164Z,7.1
2023-04-11T01:02:30.641Z,7.1
2023-04-11T01:03:37.478Z,7.1
2023-04-11T01:04:44.300Z,7
2023-04-11T01:05:51.192Z,7
2023-04-11T01:06:57.995Z,7
2023-04-11T01:08:04.761Z,6.9
2023-04-11T01:09:11.554Z,6.9
2023-04-11T01:10:18.606Z,6.8
2023-04-11T01:11:25.359Z,6.8
2023-04-11T01:12:32.114Z,6.7
2023-04-11T01:13:38.904Z,6.7
2023-04-11T01:14:45.698Z,6.7
2023-04-11T01:15:52.759Z,6.6
2023-04-11T01:16:59.644Z,6.6
2023-04-11T01:18:06.400Z,6.6
2023-04-11T01:19:13.199Z,6.5
2023-04-11T01:20:23.011Z,6.5
2023-04-11T01:21:29.873Z,6.5
2023-04-11T01:22:36.729Z,6.4
2023-04-11T01:23:43.576Z,6.4
2023-04-11T01:24:50.380Z,6.4
2023-04-11T01:25:57.138Z,6.4
2023-04-11T01:27:03.944Z,6.3
2023-04-11T01:28:10.909Z,6.3
2023-04-11T01:29:17.804Z,6.3
2023-04-11T01:30:24.593Z,6.3
2023-04-11T01:31:31.381Z,6.3
2023-04-11T01:32:38.195Z,6.2
2023-04-11T01:33:44.969Z,6.2
2023-04-11T01:34:51.878Z,6.2
2023-04-11T01:35:58.699Z,6.1
2023-04-11T01:37:05.400Z,6.1
2023-04-11T01:38:12.215Z,6.1
2023-04-11T01:39:19.186Z,6.1
2023-04-11T01:40:26.142Z,6.1
2023-04-11T01:41:32.922Z,6.1
2023-04-11T01:42:39.786Z,6.1
2023-04-11T01:43:46.572Z,6
2023-04-11T01:44:53.365Z,6.1
2023-04-11T01:46:00.285Z,6.1
2023-04-11T01:47:07.056Z,6.1
2023-04-11T01:48:13.895Z,6.1
2023-04-11T01:49:20.708Z,6
2023-04-11T01:50:27.497Z,6
2023-04-11T01:51:34.286Z,5.9
2023-04-11T01:52:41.078Z,5.9
2023-04-11T01:53:47.873Z,5.9
2023-04-11T01:54:54.634Z,5.9
2023-04-11T01:56:01.422Z,5.9
2023-04-11T01:57:08.588Z,5.8
2023-04-11T01:58:15.371Z,5.8
2023-04-11T01:59:22.120Z,5.8
2023-04-11T02:00:28.973Z,5.8
2023-04-11T02:01:35.899Z,5.8
2023-04-11T02:02:42.721Z,5.8
2023-04-11T02:03:49.485Z,5.7
2023-04-11T02:04:56.230Z,5.7
2023-04-11T02:06:03.031Z,5.7
2023-04-11T02:07:09.843Z,5.7
2023-04-11T02:08:16.702Z,5.7
2023-04-11T02:09:23.562Z,5.6
2023-04-11T02:10:30.348Z,5.6
2023-04-11T02:11:37.137Z,5.6
2023-04-11T02:12:43.935Z,5.6
2023-04-11T02:13:50.779Z,5.5
2023-04-11T02:14:57.517Z,5.5
2023-04-11T02:16:04.336Z,5.5
2023-04-11T02:17:11.343Z,5.5
2023-04-11T02:18:18.182Z,5.5
2023-04-11T02:19:24.988Z,5.4
2023-04-11T02:20:31.816Z,5.4
2023-04-11T02:21:38.647Z,5.4
2023-04-11T02:22:45.499Z,5.4
2023-04-11T02:23:52.405Z,5.4
2023-04-11T02:24:59.407Z,5.3
2023-04-11T02:26:06.310Z,5.2
2023-04-11T02:27:13.086Z,5.2
2023-04-11T02:28:19.920Z,5.2
2023-04-11T02:29:26.832Z,5.1
2023-04-11T02:30:33.712Z,5.1
2023-04-11T02:31:40.738Z,5.1
2023-04-11T02:32:47.349Z,5.1
2023-04-11T02:33:54.113Z,5.1
2023-04-11T02:35:00.867Z,5.1
2023-04-11T02:36:07.981Z,5
2023-04-11T02:37:14.691Z,5.1
2023-04-11T02:38:21.619Z,5.1
2023-04-11T02:39:28.410Z,5.1
2023-04-11T02:40:35.317Z,5
2023-04-11T02:41:42.274Z,5
2023-04-11T02:42:49.072Z,5
2023-04-11T02:43:55.887Z,5
2023-04-11T02:45:02.642Z,5
2023-04-11T02:46:12.995Z,5
2023-04-11T02:47:16.668Z,4.9
2023-04-11T02:48:23.432Z,5
2023-04-11T02:49:30.290Z,4.9
2023-04-11T02:50:37.116Z,4.9
2023-04-11T02:51:44.051Z,4.9
2023-04-11T02:52:50.959Z,4.9
2023-04-11T02:53:57.829Z,4.9
2023-04-11T02:55:04.758Z,4.9
2023-04-11T02:56:11.659Z,4.9
2023-04-11T02:57:18.483Z,4.8
2023-04-11T02:58:25.453Z,4.8
2023-04-11T02:59:32.230Z,4.8
2023-04-11T03:00:39.007Z,4.8
2023-04-11T03:01:45.810Z,4.7
2023-04-11T03:02:52.666Z,4.8
2023-04-11T03:03:59.530Z,4.8
2023-04-11T03:05:06.391Z,4.8
2023-04-11T03:06:13.308Z,4.8
2023-04-11T03:07:20.131Z,4.8
2023-04-11T03:08:27.067Z,4.8
2023-04-11T03:09:33.989Z,4.8
2023-04-11T03:10:40.908Z,4.8
2023-04-11T03:11:47.689Z,4.7
2023-04-11T03:12:54.530Z,4.7
2023-04-11T03:14:01.406Z,4.8
2023-04-11T03:15:08.347Z,4.7
2023-04-11T03:16:15.324Z,4.7
2023-04-11T03:17:22.086Z,4.7
2023-04-11T03:18:28.840Z,4.7
2023-04-11T03:19:35.621Z,4.7
2023-04-11T03:20:42.642Z,4.7
2023-04-11T03:21:49.643Z,4.7
2023-04-11T03:22:56.479Z,4.7
2023-04-11T03:24:03.349Z,4.7
2023-04-11T03:25:10.294Z,4.7
2023-04-11T03:26:17.123Z,4.7
2023-04-11T03:27:24.050Z,4.6
2023-04-11T03:28:30.823Z,4.6
2023-04-11T03:29:37.586Z,4.6
2023-04-11T03:30:44.404Z,4.6
2023-04-11T03:31:51.363Z,4.5
2023-04-11T03:32:58.220Z,4.5
2023-04-11T03:34:05.065Z,4.5
2023-04-11T03:35:11.929Z,4.5
2023-04-11T03:36:18.752Z,4.6
2023-04-11T03:37:28.555Z,4.5
2023-04-11T03:38:35.399Z,4.5
2023-04-11T03:39:42.442Z,4.5
2023-04-11T03:40:49.228Z,4.5
2023-04-11T03:41:56.059Z,4.4
2023-04-11T03:43:04.537Z,4.4
2023-04-11T03:44:09.644Z,4.4
2023-04-11T03:45:16.507Z,4.4
2023-04-11T03:46:23.417Z,4.5
2023-04-11T03:47:30.371Z,4.5
2023-04-11T03:48:37.208Z,4.5
2023-04-11T03:49:43.973Z,4.5
2023-04-11T03:50:50.901Z,4.5
2023-04-11T03:51:57.726Z,4.4
2023-04-11T03:53:04.532Z,4.4
2023-04-11T03:54:11.343Z,4.4
2023-04-11T03:55:18.131Z,4.4
2023-04-11T03:56:25.183Z,4.3
2023-04-11T03:57:32.142Z,4.3
2023-04-11T03:58:38.933Z,4.2
2023-04-11T03:59:45.779Z,4.2
2023-04-11T04:00:52.561Z,4.2
2023-04-11T04:01:59.454Z,4.2
2023-04-11T04:03:06.345Z,4.2
2023-04-11T04:04:13.062Z,4.3
2023-04-11T04:05:19.841Z,4.3
2023-04-11T04:06:26.660Z,4.3
2023-04-11T04:07:33.582Z,4.3
2023-04-11T04:08:40.461Z,4.2
2023-04-11T04:09:47.249Z,4.2
2023-04-11T04:10:54.104Z,4.2
2023-04-11T04:12:00.906Z,4.2
2023-04-11T04:13:08.002Z,4.2
2023-04-11T04:14:15.000Z,4.2
2023-04-11T04:15:21.831Z,4.2
2023-04-11T04:16:28.798Z,4.2
2023-04-11T04:17:35.607Z,4.1
2023-04-11T04:18:42.348Z,4.1
2023-04-11T04:19:49.197Z,4.1
2023-04-11T04:20:55.939Z,4.2
2023-04-11T04:22:02.737Z,4.2
2023-04-11T04:23:09.499Z,4.2
2023-04-11T04:24:16.275Z,4.2
2023-04-11T04:25:25.211Z,4.3
2023-04-11T04:26:29.954Z,4.3
2023-04-11T04:27:36.744Z,4.4
2023-04-11T04:28:43.573Z,4.4
2023-04-11T04:29:50.586Z,4.5
2023-04-11T04:30:57.181Z,4.5
2023-04-11T04:32:09.219Z,4.5
2023-04-11T04:33:16.059Z,4.5
2023-04-11T04:34:26.048Z,4.6
2023-04-11T04:35:32.880Z,4.6
2023-04-11T04:36:39.648Z,4.7
2023-04-11T04:37:51.580Z,4.7
2023-04-11T04:38:58.381Z,4.8
2023-04-11T04:40:05.155Z,4.8
2023-04-11T04:41:12.103Z,4.7
2023-04-11T04:42:18.945Z,4.7
2023-04-11T04:43:28.769Z,4.8
2023-04-11T04:44:35.681Z,4.8
2023-04-11T04:45:42.443Z,4.8
2023-04-11T04:46:49.183Z,4.8
2023-04-11T04:47:58.667Z,4.9
2023-04-11T04:49:05.461Z,4.9
2023-04-11T04:50:12.326Z,4.8
2023-04-11T04:51:19.139Z,4.9
2023-04-11T04:52:25.909Z,4.9
2023-04-11T04:53:32.686Z,4.9
2023-04-11T04:54:39.435Z,5
2023-04-11T04:55:46.303Z,5
2023-04-11T04:56:53.083Z,5
2023-04-11T04:57:59.869Z,5.1
2023-04-11T04:59:06.688Z,5.1
2023-04-11T05:00:13.473Z,5.2
2023-04-11T05:01:20.534Z,5.2
2023-04-11T05:02:27.284Z,5.3
2023-04-11T05:03:34.156Z,5.3
2023-04-11T05:04:40.840Z,5.3
2023-04-11T05:05:50.511Z,5.3
2023-04-11T05:06:57.334Z,5.3
2023-04-11T05:08:04.244Z,5.3
2023-04-11T05:09:11.030Z,5.3
2023-04-11T05:10:17.861Z,5.5
2023-04-11T05:11:24.721Z,5.5
2023-04-11T05:12:31.504Z,5.6
2023-04-11T05:13:38.526Z,5.6
2023-04-11T05:14:45.278Z,5.6
2023-04-11T05:15:52.102Z,5.6
2023-04-11T05:16:58.897Z,5.6
2023-04-11T05:18:05.681Z,5.7
2023-04-11T05:19:12.600Z,5.7
2023-04-11T05:20:19.476Z,5.8
2023-04-11T05:21:26.275Z,5.9
2023-04-11T05:22:33.030Z,5.8
2023-04-11T05:23:39.870Z,5.9
2023-04-11T05:24:46.748Z,5.9
2023-04-11T05:25:53.511Z,5.9
2023-04-11T05:27:00.271Z,6
2023-04-11T05:28:07.162Z,6.1
2023-04-11T05:29:13.914Z,6.1
2023-04-11T05:30:20.826Z,6.2
2023-04-11T05:31:27.735Z,6.2
2023-04-11T05:32:34.549Z,6.3
2023-04-11T05:33:41.331Z,6.3
2023-04-11T05:34:48.155Z,6.4
2023-04-11T05:35:54.986Z,6.4
2023-04-11T05:37:01.824Z,6.5
2023-04-11T05:38:08.628Z,6.5
2023-04-11T05:39:15.434Z,6.2
2023-04-11T05:40:22.229Z,6.2
2023-04-11T05:41:29.264Z,6.4
2023-04-11T05:42:36.118Z,6.4
2023-04-11T05:43:42.982Z,6.4
2023-04-11T05:44:49.802Z,6.5
2023-04-11T05:45:56.609Z,6.5
2023-04-11T05:47:03.644Z,6.4
2023-04-11T05:48:10.564Z,6.3
2023-04-11T05:49:17.358Z,6.3
2023-04-11T05:50:24.158Z,6.4
2023-04-11T05:51:31.094Z,6.5
2023-04-11T05:52:37.950Z,6.6
2023-04-11T05:53:44.866Z,6.6
2023-04-11T05:54:51.620Z,6.6
2023-04-11T05:55:58.391Z,6.8
2023-04-11T05:57:05.293Z,6.9
2023-04-11T05:58:12.235Z,6.9
2023-04-11T05:59:24.004Z,6.9
2023-04-11T06:00:26.020Z,7
2023-04-11T06:01:32.884Z,7.1
2023-04-11T06:02:39.750Z,7
2023-04-11T06:03:46.713Z,7
2023-04-11T06:04:53.404Z,7
2023-04-11T06:06:00.158Z,7
2023-04-11T06:07:07.119Z,7.1
2023-04-11T06:08:13.875Z,7
2023-04-11T06:09:20.799Z,7
2023-04-11T06:10:27.840Z,6.8
2023-04-11T06:11:34.594Z,6.8
2023-04-11T06:12:41.542Z,7
2023-04-11T06:13:48.343Z,7.1
2023-04-11T06:14:55.370Z,7
2023-04-11T06:16:02.316Z,7.1
2023-04-11T06:17:09.362Z,7
2023-04-11T06:18:16.298Z,7.1
2023-04-11T06:19:23.009Z,7.2
2023-04-11T06:20:30.082Z,7.3
2023-04-11T06:21:36.874Z,7.4
2023-04-11T06:22:43.633Z,7.2
2023-04-11T06:23:50.840Z,7.2
2023-04-11T06:24:57.930Z,7.5
2023-04-11T06:26:04.721Z,7.5
2023-04-11T06:27:11.833Z,7.5
2023-04-11T06:28:18.575Z,7.4
2023-04-11T06:29:25.425Z,7.6
2023-04-11T06:30:32.330Z,7.5
2023-04-11T06:31:39.200Z,7.5
2023-04-11T06:32:46.053Z,7.7
2023-04-11T06:33:53.055Z,7.9
2023-04-11T06:34:59.848Z,8.1
2023-04-11T06:36:06.844Z,8.2
2023-04-11T06:37:13.772Z,8.3
2023-04-11T06:38:20.677Z,8.1
2023-04-11T06:39:27.456Z,8.3
2023-04-11T06:40:34.269Z,8.4
2023-04-11T06:41:41.060Z,8.5
2023-04-11T06:42:47.883Z,8.5
2023-04-11T06:43:55.188Z,8.6
2023-04-11T06:45:01.767Z,8.7
2023-04-11T06:46:08.933Z,8.7
2023-04-11T06:47:15.779Z,8.7
2023-04-11T06:48:22.611Z,8.6
2023-04-11T06:49:29.440Z,8.8
2023-04-11T06:50:36.234Z,8.9
2023-04-11T06:51:42.992Z,8.6
2023-04-11T06:52:49.804Z,8.9
2023-04-11T06:53:56.911Z,9.1
2023-04-11T06:55:03.469Z,9.2
2023-04-11T06:56:10.739Z,9.1
2023-04-11T06:57:20.846Z,9.3
2023-04-11T06:58:27.680Z,9.4
2023-04-11T06:59:34.570Z,9.4
2023-04-11T07:00:41.378Z,9.4
2023-04-11T07:01:48.284Z,9.3
2023-04-11T07:02:55.201Z,9.3
2023-04-11T07:04:01.902Z,9.4
2023-04-11T07:05:08.824Z,9.5
2023-04-11T07:06:15.563Z,9.4
2023-04-11T07:07:25.606Z,9.3
2023-04-11T07:08:32.445Z,9.3
2023-04-11T07:09:39.307Z,9.4
2023-04-11T07:10:46.167Z,9.3
2023-04-11T07:11:52.938Z,9.3
2023-04-11T07:12:59.789Z,9.3
2023-04-11T07:14:06.615Z,9.2
2023-04-11T07:15:13.520Z,9.3
2023-04-11T07:16:20.409Z,9.4
2023-04-11T07:17:27.309Z,9.5
2023-04-11T07:18:33.976Z,9.4
2023-04-11T07:19:40.762Z,9.5
2023-04-11T07:20:47.804Z,9.7
2023-04-11T07:21:54.660Z,9.7
2023-04-11T07:23:01.512Z,9.7
2023-04-11T07:24:08.289Z,9.5
2023-04-11T07:25:15.116Z,9.5
2023-04-11T07:26:22.012Z,9.6
2023-04-11T07:27:28.822Z,9.5
2023-04-11T07:28:35.595Z,9.6
2023-04-11T07:29:42.392Z,9.6
2023-04-11T07:30:49.251Z,9.5
2023-04-11T07:31:56.165Z,9.4
2023-04-11T07:33:03.020Z,9.5
2023-04-11T07:34:09.820Z,9.6
2023-04-11T07:35:16.594Z,9.6
2023-04-11T07:36:23.500Z,9.6
2023-04-11T07:37:30.265Z,9.6
2023-04-11T07:38:37.129Z,9.8
2023-04-11T07:39:43.913Z,9.8
2023-04-11T07:40:50.720Z,9.9
2023-04-11T07:41:57.505Z,9.7
2023-04-11T07:43:04.271Z,9.9
2023-04-11T07:44:11.092Z,9.9
2023-04-11T07:45:17.913Z,9.8
2023-04-11T07:46:24.678Z,9.9
2023-04-11T07:47:31.517Z,10
2023-04-11T07:48:38.328Z,9.9
2023-04-11T07:49:45.157Z,9.9
2023-04-11T07:50:52.012Z,10
2023-04-11T07:51:58.998Z,10
2023-04-11T07:53:05.692Z,10.1
2023-04-11T07:54:12.538Z,10.4
2023-04-11T07:55:19.448Z,10.5
2023-04-11T07:56:26.239Z,10.7
2023-04-11T07:57:33.042Z,10.8
2023-04-11T07:58:39.897Z,10.9
2023-04-11T07:59:46.670Z,10.8
2023-04-11T08:00:53.701Z,11
2023-04-11T08:02:00.571Z,11.1
2023-04-11T08:03:07.719Z,11.1
2023-04-11T08:04:14.338Z,11.1
2023-04-11T08:05:21.043Z,11
2023-04-11T08:06:27.823Z,10.8
2023-04-11T08:07:34.660Z,10.9
2023-04-11T08:08:41.402Z,11
2023-04-11T08:09:48.263Z,11.2
2023-04-11T08:10:55.079Z,11.2
2023-04-11T08:12:01.898Z,11.4
2023-04-11T08:13:08.850Z,11.5
2023-04-11T08:14:15.661Z,11.4
2023-04-11T08:15:22.535Z,11.5
2023-04-11T08:16:29.381Z,11.7
2023-04-11T08:17:36.594Z,11.7
2023-04-11T08:18:43.203Z,11.7
2023-04-11T08:19:50.061Z,11.5
2023-04-11T08:20:56.909Z,11.3
2023-04-11T08:22:03.693Z,11.3
2023-04-11T08:23:10.658Z,11.5
2023-04-11T08:24:17.440Z,11.6
2023-04-11T08:25:24.306Z,11.5
2023-04-11T08:26:31.217Z,11.3
2023-04-11T08:27:38.015Z,11.3
2023-04-11T08:28:45.078Z,11.3
2023-04-11T08:29:52.123Z,11.3
2023-04-11T08:30:58.914Z,11.3
2023-04-11T08:32:05.695Z,11.3
2023-04-11T08:33:12.489Z,11.4
2023-04-11T08:34:19.387Z,11.4
2023-04-11T08:35:26.348Z,11.5
2023-04-11T08:36:33.267Z,11.6
2023-04-11T08:37:40.445Z,11.7
2023-04-11T08:38:47.155Z,11.8
2023-04-11T08:39:53.818Z,11.8
2023-04-11T08:41:00.686Z,11.9
2023-04-11T08:42:07.561Z,11.7
2023-04-11T08:43:24.739Z,11.8
2023-04-11T08:44:34.121Z,11.7
2023-04-11T08:45:41.051Z,11.7
2023-04-11T08:46:47.965Z,11.6
2023-04-11T08:47:54.991Z,11.6
2023-04-11T08:49:01.653Z,11.5
2023-04-11T08:50:08.498Z,11.7
2023-04-11T08:51:15.336Z,11.8
2023-04-11T08:52:24.968Z,11.8
2023-04-11T08:53:31.933Z,11.9
2023-04-11T08:54:38.856Z,12
2023-04-11T08:55:45.743Z,12
2023-04-11T08:56:52.663Z,12.1
2023-04-11T08:57:59.661Z,12.2
2023-04-11T08:59:06.718Z,12.3
2023-04-11T09:00:13.769Z,12.4
2023-04-11T09:01:21.130Z,12.4
2023-04-11T09:02:28.342Z,12.5
2023-04-11T09:03:35.258Z,12.5
2023-04-11T09:04:52.521Z,12.5
2023-04-11T09:05:59.342Z,12.5
2023-04-11T09:07:06.304Z,12.4
2023-04-11T09:08:13.270Z,12.4
2023-04-11T09:09:20.165Z,12.5
2023-04-11T09:10:32.279Z,12.5
2023-04-11T09:11:39.354Z,12.5
2023-04-11T09:12:54.026Z,12.5
2023-04-11T09:14:00.897Z,12.6
2023-04-11T09:15:07.929Z,12.6
2023-04-11T09:16:20.134Z,12.4
2023-04-11T09:17:27.149Z,12.6
2023-04-11T09:18:34.138Z,12.7
2023-04-11T09:19:41.098Z,12.5
2023-04-11T09:20:48.151Z,12.5
2023-04-11T09:21:55.049Z,12.6
2023-04-11T09:23:01.950Z,12.7
2023-04-11T09:24:09.080Z,12.9
2023-04-11T09:25:19.178Z,13
2023-04-11T09:26:26.300Z,13
2023-04-11T09:27:33.345Z,13.1
2023-04-11T09:28:40.189Z,13.2
2023-04-11T09:29:47.085Z,13
2023-04-11T09:30:54.097Z,13.2
2023-04-11T09:32:00.865Z,13.3
2023-04-11T09:33:07.785Z,13.4
2023-04-11T09:34:22.442Z,13.4
2023-04-11T09:35:29.266Z,13.3
2023-04-11T09:36:36.153Z,13.5
2023-04-11T09:37:43.051Z,13.6
2023-04-11T09:38:57.861Z,13.6
2023-04-11T09:40:05.690Z,13.4
2023-04-11T09:41:11.835Z,13.6
2023-04-11T09:42:18.759Z,13.6
2023-04-11T09:43:28.097Z,13.7
2023-04-11T09:44:45.362Z,13.7
2023-04-11T09:45:54.694Z,13.8
2023-04-11T09:47:04.197Z,13.7
2023-04-11T09:48:11.092Z,13.8
2023-04-11T09:49:17.878Z,13.8
2023-04-11T09:50:24.746Z,13.9
2023-04-11T09:51:35.585Z,14
2023-04-11T09:52:38.635Z,14
2023-04-11T09:53:45.481Z,14
2023-04-11T09:54:52.281Z,13.8
2023-04-11T09:55:59.153Z,14
2023-04-11T09:57:06.195Z,14.1
2023-04-11T09:58:13.095Z,14.1
2023-04-11T09:59:19.816Z,14.1
2023-04-11T10:00:26.685Z,14.1
2023-04-11T10:01:33.575Z,14.2
2023-04-11T10:02:40.666Z,14.2
2023-04-11T10:03:47.349Z,14.3
2023-04-11T10:04:54.141Z,14.3
2023-04-11T10:06:00.967Z,14.3
2023-04-11T10:07:07.744Z,14.3
2023-04-11T10:08:17.636Z,14.3
2023-04-11T10:09:29.641Z,14.1
2023-04-11T10:10:36.406Z,14.2
2023-04-11T10:11:43.369Z,14.3
2023-04-11T10:12:50.130Z,14.4
2023-04-11T10:13:57.392Z,14.6
2023-04-11T10:15:03.809Z,14.5
2023-04-11T10:16:10.882Z,14.3
2023-04-11T10:17:23.147Z,14.4
2023-04-11T10:18:27.148Z,14.7
2023-04-11T10:19:34.022Z,14.7
2023-04-11T10:20:41.072Z,14.7
2023-04-11T10:21:47.907Z,14.7
2023-04-11T10:22:54.724Z,14.8
2023-04-11T10:24:01.755Z,15.1
2023-04-11T10:25:16.640Z,15.2
2023-04-11T10:26:23.638Z,15
2023-04-11T10:27:38.606Z,14.9
2023-04-11T10:28:51.594Z,15
2023-04-11T10:29:58.536Z,15
2023-04-11T10:31:05.455Z,14.9
2023-04-11T10:32:12.287Z,15
2023-04-11T10:33:21.976Z,14.8
2023-04-11T10:34:28.922Z,14.9
2023-04-11T10:35:35.761Z,14.8
2023-04-11T10:36:52.956Z,14.9
2023-04-11T10:38:04.987Z,14.9
2023-04-11T10:39:11.762Z,15.1
2023-04-11T10:40:18.550Z,15.2
2023-04-11T10:41:25.609Z,15.3
2023-04-11T10:42:32.411Z,15.3
2023-04-11T10:43:39.332Z,15.2
2023-04-11T10:44:46.050Z,15.2
2023-04-11T10:45:52.987Z,15.1
2023-04-11T10:47:10.206Z,15.3
2023-04-11T10:48:17.013Z,15.2
2023-04-11T10:49:23.928Z,15.2
2023-04-11T10:50:41.223Z,15.2
2023-04-11T10:51:48.046Z,15.2
2023-04-11T10:52:54.948Z,15.3
2023-04-11T10:54:02.236Z,15.4
2023-04-11T10:55:08.552Z,15.4
2023-04-11T10:56:18.054Z,15.6
2023-04-11T10:57:30.052Z,15.5
2023-04-11T10:58:36.812Z,15.5
2023-04-11T10:59:43.708Z,15.7
2023-04-11T11:00:53.666Z,15.9
2023-04-11T11:02:03.800Z,15.7
2023-04-11T11:03:10.743Z,15.6
2023-04-11T11:04:17.745Z,15.6
2023-04-11T11:05:24.326Z,15.8
2023-04-11T11:06:31.166Z,15.6
2023-04-11T11:07:37.957Z,15.7
2023-04-11T11:08:44.786Z,15.7
2023-04-11T11:09:51.631Z,15.8
2023-04-11T11:10:58.386Z,15.9
2023-04-11T11:12:05.168Z,15.8
2023-04-11T11:13:14.733Z,16.1
2023-04-11T11:14:21.601Z,16.1
2023-04-11T11:15:31.296Z,16.3
2023-04-11T11:16:38.177Z,16.2
2023-04-11T11:17:45.084Z,16.1
2023-04-11T11:18:51.896Z,16.3
2023-04-11T11:19:58.808Z,16.4
2023-04-11T11:21:07.329Z,16.3
2023-04-11T11:22:12.505Z,16.3
2023-04-11T11:23:22.245Z,16.1
2023-04-11T11:24:29.099Z,16
2023-04-11T11:25:35.937Z,15.9
2023-04-11T11:26:42.812Z,15.9
2023-04-11T11:27:49.615Z,15.9
2023-04-11T11:29:06.849Z,15.9
2023-04-11T11:30:13.684Z,15.9
2023-04-11T11:31:20.649Z,16
2023-04-11T11:32:27.482Z,15.7
2023-04-11T11:33:34.520Z,15.7
2023-04-11T11:34:41.470Z,15.6
2023-04-11T11:35:48.326Z,15.5
2023-04-11T11:37:00.446Z,15.5
2023-04-11T11:38:10.142Z,15.5
2023-04-11T11:39:16.994Z,15.7
2023-04-11T11:40:23.848Z,15.8
2023-04-11T11:41:30.676Z,15.7
2023-04-11T11:42:40.419Z,15.9
2023-04-11T11:43:47.333Z,15.8
2023-04-11T11:44:54.162Z,15.8
2023-04-11T11:46:00.985Z,15.9
2023-04-11T11:47:13.745Z,15.6
2023-04-11T11:48:20.545Z,15.9
2023-04-11T11:49:27.548Z,15.8
2023-04-11T11:50:44.740Z,16.1
2023-04-11T11:51:51.752Z,15.9
2023-04-11T11:52:58.501Z,16.1
2023-04-11T11:54:15.663Z,16.2
2023-04-11T11:55:22.554Z,16.3
2023-04-11T11:56:29.453Z,16.2
2023-04-11T11:57:36.284Z,16.1
2023-04-11T11:58:48.429Z,15.9
2023-04-11T11:59:55.213Z,15.9
2023-04-11T12:01:02.004Z,15.9
2023-04-11T12:02:10.729Z,16
2023-04-11T12:03:17.566Z,16
2023-04-11T12:04:24.357Z,16.1
2023-04-11T12:05:31.337Z,16.3
2023-04-11T12:06:37.886Z,16.1
2023-04-11T12:07:44.679Z,15.9
2023-04-11T12:08:51.499Z,15.8
2023-04-11T12:09:58.475Z,15.7
2023-04-11T12:11:05.307Z,15.7
2023-04-11T12:12:12.098Z,15.5
2023-04-11T12:13:18.879Z,15.8
2023-04-11T12:14:25.682Z,15.8
2023-04-11T12:15:32.707Z,15.9
2023-04-11T12:16:39.481Z,16
2023-04-11T12:17:46.267Z,15.9
2023-04-11T12:18:55.817Z,15.8
2023-04-11T12:20:02.703Z,15.9
2023-04-11T12:21:09.716Z,16
2023-04-11T12:22:16.552Z,15.9
2023-04-11T12:23:23.434Z,15.9
2023-04-11T12:24:30.214Z,15.8
2023-04-11T12:25:37.056Z,15.6
2023-04-11T12:26:52.964Z,15.4
2023-04-11T12:27:50.691Z,15.4
2023-04-11T12:28:57.939Z,15.4
2023-04-11T12:30:04.510Z,15.4
2023-04-11T12:31:11.405Z,15.3
2023-04-11T12:32:18.384Z,15.5
2023-04-11T12:33:25.237Z,15.5
2023-04-11T12:34:32.182Z,15.2
2023-04-11T12:35:38.960Z,15.5
2023-04-11T12:36:45.857Z,15.4
2023-04-11T12:37:52.664Z,15.4
2023-04-11T12:38:59.674Z,15.4
2023-04-11T12:40:06.608Z,15.4
2023-04-11T12:41:31.399Z,15.3
2023-04-11T12:42:24.221Z,15.3
2023-04-11T12:43:30.131Z,15.3
2023-04-11T12:44:36.990Z,15.5
2023-04-11T12:45:44.011Z,15.6
2023-04-11T12:46:50.925Z,15.7
2023-04-11T12:47:57.731Z,15.6
2023-04-11T12:49:04.516Z,15.4
2023-04-11T12:50:11.341Z,15.3
2023-04-11T12:51:18.134Z,15.3
2023-04-11T12:52:25.039Z,15.2
2023-04-11T12:53:31.845Z,15.2
2023-04-11T12:54:38.645Z,15.1
2023-04-11T12:55:45.538Z,15
2023-04-11T12:57:49.341Z,15
2023-04-11T12:58:56.501Z,15.1
2023-04-11T13:00:03.184Z,15
2023-04-11T13:01:10.362Z,15
2023-04-11T13:02:18.079Z,14.8
2023-04-11T13:03:25.066Z,15
2023-04-11T13:04:34.241Z,15.1
2023-04-11T13:05:41.129Z,15
2023-04-11T13:06:48.007Z,15.1
2023-04-11T13:07:54.992Z,15
2023-04-11T13:09:01.887Z,14.9
2023-04-11T13:10:08.897Z,14.9
2023-04-11T13:11:15.868Z,15
2023-04-11T13:12:22.732Z,14.9
2023-04-11T13:13:29.610Z,14.9
2023-04-11T13:14:36.443Z,14.9
2023-04-11T13:15:43.284Z,14.6
2023-04-11T13:16:50.523Z,14.8
2023-04-11T13:17:57.596Z,14.8
2023-04-11T13:19:04.428Z,14.9
2023-04-11T13:20:11.363Z,14.8
2023-04-11T13:21:18.311Z,14.7
2023-04-11T13:22:25.240Z,14.6
2023-04-11T13:23:32.198Z,14.6
2023-04-11T13:24:39.072Z,14.5
2023-04-11T13:25:45.976Z,14.4
2023-04-11T13:26:52.898Z,14.5
2023-04-11T13:27:59.934Z,14.4
2023-04-11T13:29:06.837Z,14.3
2023-04-11T13:30:13.744Z,14.4
2023-04-11T13:31:20.697Z,14.4
2023-04-11T13:32:27.827Z,14.3
2023-04-11T13:33:34.668Z,14.3
2023-04-11T13:34:41.768Z,14.3
2023-04-11T13:35:48.657Z,14.2
2023-04-11T13:36:55.514Z,14.3
2023-04-11T13:38:02.393Z,14.3
2023-04-11T13:39:09.512Z,14.4
2023-04-11T13:40:16.434Z,14.4
2023-04-11T13:41:23.386Z,14.5
2023-04-11T13:42:30.217Z,14.4
2023-04-11T13:43:37.132Z,14.4
2023-04-11T13:44:43.998Z,14.2
2023-04-11T13:45:50.940Z,14.1
2023-04-11T13:46:57.845Z,13.9
2023-04-11T13:48:04.844Z,14
2023-04-11T13:49:11.663Z,14
2023-04-11T13:50:18.581Z,14.1
2023-04-11T13:51:25.449Z,14.1
2023-04-11T13:52:32.367Z,14.2
2023-04-11T13:53:39.244Z,14
2023-04-11T13:54:46.186Z,14
2023-04-11T13:55:53.130Z,13.9
2023-04-11T13:57:00.614Z,13.8
2023-04-11T13:58:08.325Z,13.6
2023-04-11T13:59:15.287Z,13.5
2023-04-11T14:00:22.161Z,13.4
2023-04-11T14:01:29.147Z,13.4
2023-04-11T14:02:36.075Z,13.5
2023-04-11T14:03:43.187Z,13.3
2023-04-11T14:04:49.917Z,13.3
2023-04-11T14:05:56.763Z,13.2
2023-04-11T14:07:05.277Z,13.2
2023-04-11T14:08:21.508Z,13.1
2023-04-11T14:09:30.638Z,13.1
2023-04-11T14:10:37.626Z,12.9
2023-04-11T14:11:44.530Z,12.7
2023-04-11T14:12:51.430Z,12.8
2023-04-11T14:13:58.633Z,12.6
2023-04-11T14:15:05.310Z,12.7
2023-04-11T14:16:12.732Z,12.5
2023-04-11T14:17:22.768Z,12.4
2023-04-11T14:18:29.694Z,12.2
2023-04-11T14:19:36.569Z,12.4
2023-04-11T14:20:43.469Z,12.3
2023-04-11T14:21:50.349Z,12.1
2023-04-11T14:22:57.240Z,12
2023-04-11T14:24:04.036Z,11.9
2023-04-11T14:25:11.096Z,12
2023-04-11T14:26:18.036Z,12
2023-04-11T14:27:24.886Z,11.9
2023-04-11T14:28:31.878Z,12
2023-04-11T14:29:38.782Z,12
2023-04-11T14:30:45.782Z,12
2023-04-11T14:31:52.602Z,12
2023-04-11T14:32:59.427Z,11.9
2023-04-11T14:34:06.348Z,11.8
2023-04-11T14:35:13.376Z,11.8
2023-04-11T14:36:20.157Z,11.6
2023-04-11T14:37:27.128Z,11.6
2023-04-11T14:38:33.978Z,11.4
2023-04-11T14:39:40.979Z,11.4
2023-04-11T14:40:48.314Z,11.4
2023-04-11T14:41:55.353Z,11.4
2023-04-11T14:43:03.206Z,11.2
2023-04-11T14:44:10.058Z,11.1
2023-04-11T14:45:17.072Z,11.2
2023-04-11T14:46:25.886Z,11.3
2023-04-11T14:47:33.841Z,11.3
2023-04-11T14:48:40.659Z,11.4
2023-04-11T14:49:47.517Z,11.2
2023-04-11T14:50:56.420Z,11.2
2023-04-11T14:52:03.297Z,11.2
2023-04-11T14:53:10.319Z,11.1
2023-04-11T14:54:19.323Z,11.1
2023-04-11T14:55:26.175Z,11.1
2023-04-11T14:56:36.366Z,11.1
2023-04-11T14:57:44.129Z,11.1
2023-04-11T14:58:50.971Z,11
2023-04-11T14:59:59.514Z,11.1
2023-04-11T15:01:06.571Z,11.2
2023-04-11T15:02:13.736Z,11.2
2023-04-11T15:03:20.602Z,11.3
2023-04-11T15:04:27.398Z,11.2
2023-04-11T15:05:37.110Z,11.2
2023-04-11T15:06:44.003Z,11.2
2023-04-11T15:07:54.798Z,11.2
2023-04-11T15:09:01.710Z,11.2
2023-04-11T15:10:09.779Z,11.2
2023-04-11T15:11:20.272Z,11.2
2023-04-11T15:12:30.054Z,11.3
2023-04-11T15:13:37.214Z,11.3
2023-04-11T15:14:44.995Z,11.2
2023-04-11T15:15:51.871Z,11.2
2023-04-11T15:17:06.886Z,11.3
2023-04-11T15:18:13.751Z,11.2